Ana Sayfa
METAR-TAF:

METAR-TAF

Havaalanları :

İguasu, Arjantin

Enlem: 25-44S, Boylam: 054-28W, yükseklik: 270 m

Güncel hava durumu gözlemi

Rapor saat 12:00 UTC de 43 dakika önce yapıldı.
Rüzgar değişken yönden 3 kt
Sıcaklık 17°C
Nem 94%
Basınç 1021 hPa
Görüş mesafesi 10 km veya daha fazla
900 ft yükseklikte parçalı çok bulutlu

METAR: SARI 171200Z VRB03KT 9999 BKN009 17/16 Q1021

Saat: 09:43 (12:43 UTC)

Tahmin

Rapor saat 11:00 UTC de 1 saat ve 43 dakika önce yapıldı.
Ayın 17'si saat 12 UTC'den ayın 18'si saat 12 UTC'ye kadar geçerli Tahmin
Rüzgar değişken yönden 2 kt
Görüş mesafesi 10 km veya daha fazla
1500 m altında bulut yok ve kümülonimbus yok
Dönüşüyor
ayın 18'si saat 05 UTC'den ayın 18'si saat 07 UTC'ye kadar
Görüş mesafesi: 3000 m
Pus
Olasılık 30%
ayın 18'si saat 07 UTC'den ayın 18'si saat 11 UTC'ye kadar
Görüş mesafesi: 0500 m
sis,

TAF: SARI 171100Z 1712/1812 VRB02KT CAVOK TX24/1718Z TN14/1809Z BECMG 1805/1807 3000 BR PROB30 1807/1811 0500 FG

4.000'den fazla havaalanı için hava durumu gözlemleri ve tahminleri (METAR ve TAF raporları).

Kullanılabilir istasyonlar harita üzerinde sarı ve kırmızı noktalarla gösterilir.

İstasyonun adını görmek için fareyi noktanın üzerinde gezdirin.

Sonrasında hava gözlem ve tahminlerini görmek için tıklayın.

Haritayı değiştirmek için: yaklaştırmak için siyah artı işaretli yeşil düğmeye ve uzaklaştırmak için de eksi işaretli düğmeye hızla tıklayın; bitişik haritalar için yeşil okları kullanın.


METAR-TAF: